Aérodrome :
LOGIN :

S'inscrire | Disclaimer

   EN    FR    IT 

 










Légende :    VFR   VFR Marginal   IFR   IFR Intensif   IFR Très Intensif
Visi : 
Plafond : 
>= 8 km
>= 3000ft
5 à 8 km
1000 à 3000 ft
1500m à 5 km
500 à 1000 ft
800 à 1500m
200 à 500 ft
< 800m
< 200 ft
Symboles :   Orages  Brouillard  Fortes neiges  Fortes précipitations  Vent > 20 kt
SIGMETs :   Divers  Orages  Givrage  Turbulence  Onde Orograph.  Cendres Volcan.







- Altitude de l'aérodrome : 302 ft
- Code IATA : CGN


EDDK - Cologne Bonn

DERNIER METAR :
  • 261920Z 20004KT 180V240 CAVOK 18/11 Q1011 NOSIG

METARs EXPIRÉS :
  • 261850Z 20005KT CAVOK 19/11 Q1011 NOSIG
  • 261820Z 21005KT CAVOK 19/11 Q1011 NOSIG
  • 261750Z 21005KT 180V240 CAVOK 19/11 Q1012 NOSIG
  • 261720Z 22007KT CAVOK 19/11 Q1012 NOSIG
  • 261650Z 24010KT 210V270 CAVOK 19/11 Q1012 NOSIG

TAF TAF EDDK
Valide du 26 à 18h jusqu'au 28 à 00h UTC


261700Z 2618/2724 25008KT 9999 SCT035
PROB30
TEMPO 2701/2708 RA
TEMPO 2702/2710 BKN008
BECMG 2715/2717 31004KT
Pas de NOTAMs connus pour ce terrain.



MET'MAP, la Météo Aéronautique d'un coup d'oeil ! - Copyright ORBIFLY Décembre 2007 - Disclaimer

ORBIFLY MET'MAP TEAM :

Programmation & Développement : Alexandra Zaïnal
Conception & Développement : Baudouin d'Aumeries
Co-Programmation & Développement : Marc-Olivier Méhu
Soutien technique & logistique : Manuel Goepfert

Contact : metmap@orbifly.com




SOURCES & CREDITS :

   NOAA